Time;durP1;ratioP1;P1;durP2;ratioP2;P2;SDS_P1;SDS_P2;PMS_P1;PMS_P2;Temp;Humidity;BMP_temperature;BMP_pressure;BME280_temperature;BME280_humidity;BME280_pressure;Samples;Min_cycle;Max_cycle;Signal;HPM_P1;HPM_P2
2023/10/10 00:00:27;;;;;;;1.20;0.70;;;;;;;;;;4998485;28;59506;-66
2023/10/10 00:02:52;;;;;;;;;;;;;;;;;;4999441;28;58396;-66
2023/10/10 00:05:18;;;;;;;0.35;0.35;;;;;;;;;;5000059;28;59253;-67
2023/10/10 00:07:44;;;;;;;1.02;0.40;;;;;;;;;;4998121;28;59326;-73
2023/10/10 00:10:13;;;;;;;0.77;0.77;;;;;;;;;;4997525;28;58437;-73
2023/10/10 00:12:39;;;;;;;0.85;0.63;;;;;;;;;;4996634;28;58693;-73
2023/10/10 00:15:13;;;;;;;0.50;0.50;;;;;;;;;;4998833;28;58906;-73
2023/10/10 00:17:40;;;;;;;0.40;0.40;;;;;;;;;;4995602;28;58419;-73
2023/10/10 00:20:25;;;;;;;0.85;0.50;;;;;;;;;;4998960;28;60132;-73
2023/10/10 00:22:58;;;;;;;0.60;0.60;;;;;;;;;;4996302;28;59973;-72
2023/10/10 00:25:30;;;;;;;0.68;0.68;;;;;;;;;;4998100;28;59662;-74
2023/10/10 00:27:59;;;;;;;0.50;0.50;;;;;;;;;;4996745;28;63586;-67
2023/10/10 00:30:27;;;;;;;1.67;0.63;;;;;;;;;;4998009;28;58419;-69
2023/10/10 00:32:53;;;;;;;0.70;0.50;;;;;;;;;;4997430;28;59640;-69
2023/10/10 00:35:18;;;;;;;0.67;0.67;;;;;;;;;;4995163;28;58996;-65
2023/10/10 00:37:45;;;;;;;1.53;0.73;;;;;;;;;;4998089;28;58493;-65
2023/10/10 00:40:11;;;;;;;1.05;0.47;;;;;;;;;;4999658;28;58641;-66
2023/10/10 00:42:37;;;;;;;0.65;0.65;;;;;;;;;;4996030;28;58553;-68
2023/10/10 00:45:15;;;;;;;0.40;0.40;;;;;;;;;;4998888;28;58409;-68
2023/10/10 00:47:47;;;;;;;0.65;0.65;;;;;;;;;;4996617;28;58442;-66
2023/10/10 00:50:19;;;;;;;0.47;0.35;;;;;;;;;;4999723;28;58612;-66
2023/10/10 00:52:49;;;;;;;0.63;0.63;;;;;;;;;;4997795;28;60449;-66
2023/10/10 00:55:21;;;;;;;0.57;0.57;;;;;;;;;;4998750;28;58366;-66
2023/10/10 00:57:46;;;;;;;1.23;0.50;;;;;;;;;;4998354;28;58524;-63
2023/10/10 01:00:15;;;;;;;0.40;0.40;;;;;;;;;;4997707;28;60119;-63
2023/10/10 01:02:42;;;;;;;0.20;0.20;;;;;;;;;;4996985;28;60207;-66
2023/10/10 01:05:13;;;;;;;0.40;0.40;;;;;;;;;;4996879;28;58414;-68
2023/10/10 01:07:39;;;;;;;0.70;0.50;;;;;;;;;;4998264;28;59478;-68
2023/10/10 01:10:12;;;;;;;0.35;0.35;;;;;;;;;;4996220;28;58328;-66
2023/10/10 01:12:39;;;;;;;0.50;0.50;;;;;;;;;;4996679;28;60534;-65
2023/10/10 01:15:08;;;;;;;0.43;0.40;;;;;;;;;;4998692;28;58508;-66
2023/10/10 01:17:33;;;;;;;0.50;0.50;;;;;;;;;;4996750;28;58725;-66
2023/10/10 01:20:14;;;;;;;0.93;0.40;;;;;;;;;;4999245;28;59480;-66
2023/10/10 01:22:46;;;;;;;0.40;0.40;;;;;;;;;;4996956;28;59108;-66
2023/10/10 01:28:01;;;;;;;0.57;0.57;;;;;;;;;;4996569;28;62095;-64
2023/10/10 01:33:14;;;;;;;0.73;0.73;;;;;;;;;;4999493;28;58625;-66
2023/10/10 01:35:43;;;;;;;0.90;0.40;;;;;;;;;;4996703;28;59864;-66
2023/10/10 01:38:14;;;;;;;0.50;0.50;;;;;;;;;;4997153;28;58579;-65
2023/10/10 01:40:40;;;;;;;0.50;0.50;;;;;;;;;;4996995;28;59492;-63
2023/10/10 01:43:10;;;;;;;0.60;0.50;;;;;;;;;;4997905;28;59167;-65
2023/10/10 01:45:41;;;;;;;0.43;0.43;;;;;;;;;;4997613;28;58520;-67
2023/10/10 01:48:08;;;;;;;0.63;0.43;;;;;;;;;;5000595;28;59372;-67
2023/10/10 01:50:33;;;;;;;0.28;0.28;;;;;;;;;;4999854;28;59900;-67
2023/10/10 01:53:00;;;;;;;0.43;0.43;;;;;;;;;;5001892;28;58442;-65
2023/10/10 01:55:25;;;;;;;0.50;0.50;;;;;;;;;;5001567;28;59046;-69
2023/10/10 01:57:51;;;;;;;0.52;0.30;;;;;;;;;;5000802;28;58468;-66
2023/10/10 02:00:26;;;;;;;0.20;0.20;;;;;;;;;;5000657;28;59489;-65
2023/10/10 02:02:53;;;;;;;0.60;0.60;;;;;;;;;;4999411;28;58532;-67
2023/10/10 02:08:11;;;;;;;0.73;0.60;;;;;;;;;;5000616;28;58435;-66
2023/10/10 02:10:36;;;;;;;0.38;0.32;;;;;;;;;;5000451;28;60229;-67
2023/10/10 02:13:05;;;;;;;0.63;0.27;;;;;;;;;;5000743;28;58407;-67
2023/10/10 02:15:35;;;;;;;0.55;0.40;;;;;;;;;;4994048;28;59677;-67
2023/10/10 02:18:04;;;;;;;0.85;0.30;;;;;;;;;;4996133;28;58580;-68
2023/10/10 02:20:49;;;;;;;0.63;0.63;;;;;;;;;;4995056;28;58672;-69
2023/10/10 02:25:48;;;;;;;0.68;0.30;;;;;;;;;;4996173;28;58697;-68
2023/10/10 02:30:41;;;;;;;0.75;0.75;;;;;;;;;;4997387;28;58466;-67
2023/10/10 02:33:30;;;;;;;0.50;0.50;;;;;;;;;;4996677;28;58415;-68
2023/10/10 02:35:55;;;;;;;0.35;0.35;;;;;;;;;;4997262;28;60700;-67
2023/10/10 02:39:19;;;;;;;0.25;0.25;;;;;;;;;;4998080;28;58440;-66
2023/10/10 02:41:38;;;;;;;0.22;0.22;;;;;;;;;;4988152;28;58866;-67
2023/10/10 02:44:05;;;;;;;0.40;0.40;;;;;;;;;;4993786;28;59046;-69
2023/10/10 02:46:35;;;;;;;0.20;0.20;;;;;;;;;;4996061;28;59327;-66
2023/10/10 02:49:05;;;;;;;0.38;0.28;;;;;;;;;;4998209;28;60204;-66
2023/10/10 02:51:31;;;;;;;0.40;0.40;;;;;;;;;;4994866;28;58417;-68
2023/10/10 02:53:57;;;;;;;0.25;0.25;;;;;;;;;;4996325;28;58437;-66
2023/10/10 02:56:24;;;;;;;0.40;0.40;;;;;;;;;;4996641;28;60341;-66
2023/10/10 02:58:54;;;;;;;0.40;0.40;;;;;;;;;;4994316;28;58727;-67
2023/10/10 03:01:50;;;;;;;0.38;0.38;;;;;;;;;;4997683;28;59383;-66
2023/10/10 03:04:07;;;;;;;0.40;0.40;;;;;;;;;;4994842;28;63960;-67
2023/10/10 03:06:33;;;;;;;0.35;0.35;;;;;;;;;;4994261;28;58428;-67
2023/10/10 03:09:14;;;;;;;0.40;0.40;;;;;;;;;;4997918;28;60045;-66
2023/10/10 03:11:53;;;;;;;0.40;0.40;;;;;;;;;;4994688;28;60416;-66
2023/10/10 03:14:27;;;;;;;1.27;0.70;;;;;;;;;;4998683;28;58472;-67
2023/10/10 03:17:05;;;;;;;0.40;0.40;;;;;;;;;;4994352;28;60564;-66
2023/10/10 03:19:38;;;;;;;0.50;0.50;;;;;;;;;;4999196;28;58573;-67
2023/10/10 03:22:30;;;;;;;0.30;0.30;;;;;;;;;;4998728;28;58436;-66
2023/10/10 03:25:20;;;;;;;0.35;0.35;;;;;;;;;;4999647;28;65110;-66
2023/10/10 03:30:24;;;;;;;0.20;0.20;;;;;;;;;;4998028;28;58844;-66
2023/10/10 03:35:52;;;;;;;0.47;0.30;;;;;;;;;;4995624;28;58672;-67
2023/10/10 03:38:44;;;;;;;0.57;0.40;;;;;;;;;;4996752;28;60425;-67
2023/10/10 03:41:26;;;;;;;0.65;0.40;;;;;;;;;;4997844;28;60140;-67
2023/10/10 05:25:07;;;;;;;0.52;0.52;;;;;;;;;;4997172;28;58462;-72
2023/10/10 05:27:32;;;;;;;0.50;0.50;;;;;;;;;;4992402;28;61164;-72
2023/10/10 05:29:59;;;;;;;0.50;0.50;;;;;;;;;;4993604;28;58659;-72
2023/10/10 05:32:27;;;;;;;0.80;0.80;;;;;;;;;;4996503;28;58453;-72
2023/10/10 05:34:52;;;;;;;0.40;0.40;;;;;;;;;;5000712;28;59484;-72
2023/10/10 05:37:17;;;;;;;0.70;0.50;;;;;;;;;;4993794;28;58419;-73
2023/10/10 05:39:42;;;;;;;0.57;0.57;;;;;;;;;;4994938;28;58577;-73
2023/10/10 05:42:08;;;;;;;0.67;0.60;;;;;;;;;;4995623;28;58756;-72
2023/10/10 05:44:38;;;;;;;0.30;0.30;;;;;;;;;;4994492;28;58829;-72
2023/10/10 05:47:06;;;;;;;0.75;0.52;;;;;;;;;;4992531;28;59510;-73
2023/10/10 05:49:32;;;;;;;0.80;0.80;;;;;;;;;;4994407;28;58545;-72
2023/10/10 05:51:58;;;;;;;0.60;0.40;;;;;;;;;;4996496;28;58449;-73
2023/10/10 05:54:23;;;;;;;0.70;0.40;;;;;;;;;;4997531;28;58668;-73
2023/10/10 05:56:48;;;;;;;0.70;0.70;;;;;;;;;;4994188;28;58536;-72
2023/10/10 05:59:14;;;;;;;0.60;0.60;;;;;;;;;;4995137;28;58365;-72
2023/10/10 06:01:39;;;;;;;0.67;0.60;;;;;;;;;;4993375;28;59855;-72
2023/10/10 06:04:05;;;;;;;0.50;0.50;;;;;;;;;;4996745;28;59181;-73
2023/10/10 06:06:31;;;;;;;2.70;0.95;;;;;;;;;;4995173;28;58363;-72
2023/10/10 06:09:00;;;;;;;5.05;0.65;;;;;;;;;;4993772;28;58539;-68
2023/10/10 06:11:25;;;;;;;1.08;0.50;;;;;;;;;;4993958;28;58483;-67
2023/10/10 06:13:50;;;;;;;0.52;0.43;;;;;;;;;;4995072;28;58766;-68
2023/10/10 06:16:16;;;;;;;1.10;0.82;;;;;;;;;;4994605;28;58863;-68
2023/10/10 06:18:42;;;;;;;1.88;0.43;;;;;;;;;;4994242;28;58503;-70
2023/10/10 06:21:07;;;;;;;0.63;0.50;;;;;;;;;;4995467;28;59615;-65
2023/10/10 06:23:35;;;;;;;0.85;0.47;;;;;;;;;;4993810;28;60152;-65
2023/10/10 06:26:00;;;;;;;4.63;1.38;;;;;;;;;;4994359;28;58676;-67
2023/10/10 06:28:45;;;;;;;1.05;0.70;;;;;;;;;;4997888;28;60060;-66
2023/10/10 06:31:12;;;;;;;1.73;0.60;;;;;;;;;;5000790;28;58892;-64
2023/10/10 06:33:40;;;;;;;1.02;0.50;;;;;;;;;;4997537;28;58644;-63
2023/10/10 06:38:59;;;;;;;1.20;0.40;;;;;;;;;;4996990;28;58658;-62
2023/10/10 06:41:27;;;;;;;0.40;0.40;;;;;;;;;;4998707;28;59009;-63
2023/10/10 06:43:52;;;;;;;1.63;0.50;;;;;;;;;;4998321;28;58913;-63
2023/10/10 06:46:17;;;;;;;1.87;0.50;;;;;;;;;;4997998;28;58366;-66
2023/10/10 06:48:43;;;;;;;0.98;0.98;;;;;;;;;;4996672;28;59467;-66
2023/10/10 06:51:09;;;;;;;1.42;0.90;;;;;;;;;;4998973;28;58501;-64
2023/10/10 06:53:35;;;;;;;1.27;0.50;;;;;;;;;;4997447;28;60630;-63
2023/10/10 06:56:14;;;;;;;1.15;0.57;;;;;;;;;;4996666;28;60029;-64
2023/10/10 06:58:39;;;;;;;0.47;0.47;;;;;;;;;;4996837;28;58510;-63
2023/10/10 07:01:05;;;;;;;0.70;0.50;;;;;;;;;;4999585;28;58523;-63
2023/10/10 07:03:30;;;;;;;2.87;1.13;;;;;;;;;;4994688;28;60163;-63
2023/10/10 07:05:56;;;;;;;1.70;0.95;;;;;;;;;;4994054;28;58421;-63
2023/10/10 07:08:24;;;;;;;0.80;0.50;;;;;;;;;;4997605;28;59098;-66
2023/10/10 07:10:51;;;;;;;0.68;0.65;;;;;;;;;;4997537;28;58399;-66
2023/10/10 07:13:19;;;;;;;0.60;0.60;;;;;;;;;;4998283;28;58876;-64
2023/10/10 07:15:51;;;;;;;0.85;0.63;;;;;;;;;;4997128;28;60352;-63
2023/10/10 07:18:22;;;;;;;1.80;0.60;;;;;;;;;;4996602;28;58449;-64
2023/10/10 07:23:38;;;;;;;0.68;0.68;;;;;;;;;;4996182;28;58820;-66
2023/10/10 07:26:05;;;;;;;0.88;0.50;;;;;;;;;;4998322;28;58744;-63
2023/10/10 07:28:36;;;;;;;2.00;0.60;;;;;;;;;;4999011;28;59618;-65
2023/10/10 07:31:01;;;;;;;2.13;0.50;;;;;;;;;;4996960;28;60187;-65
2023/10/10 07:33:40;;;;;;;1.33;0.80;;;;;;;;;;4997263;28;58499;-67
2023/10/10 07:36:05;;;;;;;1.05;0.88;;;;;;;;;;4996337;28;60255;-69
2023/10/10 07:38:30;;;;;;;0.80;0.65;;;;;;;;;;4996620;28;58627;-69
2023/10/10 07:40:56;;;;;;;0.80;0.80;;;;;;;;;;4995016;28;60600;-68
2023/10/10 07:43:26;;;;;;;0.83;0.70;;;;;;;;;;4997030;28;58758;-68
2023/10/10 07:45:54;;;;;;;0.57;0.57;;;;;;;;;;4995278;28;58589;-69
2023/10/10 07:51:06;;;;;;;0.82;0.82;;;;;;;;;;4996459;28;58672;-69
2023/10/10 07:53:40;;;;;;;0.65;0.40;;;;;;;;;;4997152;28;58495;-69
2023/10/10 07:56:06;;;;;;;0.55;0.55;;;;;;;;;;4995023;28;58788;-70
2023/10/10 07:58:43;;;;;;;0.70;0.50;;;;;;;;;;4993440;28;58726;-70
2023/10/10 08:01:09;;;;;;;0.40;0.40;;;;;;;;;;4994752;28;59889;-69
2023/10/10 08:03:34;;;;;;;0.47;0.47;;;;;;;;;;4995704;28;59854;-68
2023/10/10 08:06:00;;;;;;;0.70;0.70;;;;;;;;;;4997547;28;59097;-68
2023/10/10 08:08:26;;;;;;;1.27;0.90;;;;;;;;;;4994806;28;60189;-68
2023/10/10 08:10:51;;;;;;;0.60;0.60;;;;;;;;;;4996908;28;59237;-69
2023/10/10 08:13:17;;;;;;;0.90;0.73;;;;;;;;;;4998479;28;58382;-69
2023/10/10 08:23:30;;;;;;;0.57;0.57;;;;;;;;;;4996227;28;58597;-69
2023/10/10 08:25:56;;;;;;;0.98;0.80;;;;;;;;;;4996805;28;58445;-71
2023/10/10 08:28:22;;;;;;;0.70;0.70;;;;;;;;;;4996749;28;58819;-69
2023/10/10 08:30:48;;;;;;;0.77;0.77;;;;;;;;;;4993307;28;58450;-69
2023/10/10 08:33:13;;;;;;;0.63;0.60;;;;;;;;;;4997053;28;58587;-69
2023/10/10 08:35:39;;;;;;;0.70;0.70;;;;;;;;;;4994332;28;58960;-69
2023/10/10 08:38:07;;;;;;;0.50;0.50;;;;;;;;;;4995443;28;58962;-69
2023/10/10 08:40:33;;;;;;;0.73;0.70;;;;;;;;;;4996170;28;58437;-69
2023/10/10 08:42:59;;;;;;;0.98;0.93;;;;;;;;;;4993378;28;60100;-68
2023/10/10 08:45:25;;;;;;;0.55;0.55;;;;;;;;;;4993647;28;58427;-68
2023/10/10 08:47:50;;;;;;;0.77;0.77;;;;;;;;;;4995738;28;59430;-69
2023/10/10 08:50:16;;;;;;;0.60;0.60;;;;;;;;;;4997990;28;58988;-68
2023/10/10 08:52:42;;;;;;;1.08;0.90;;;;;;;;;;4996531;28;58437;-69
2023/10/10 08:55:10;;;;;;;0.95;0.80;;;;;;;;;;4998982;28;59365;-68
2023/10/10 08:57:38;;;;;;;1.10;0.90;;;;;;;;;;4995905;28;58591;-68
2023/10/10 09:00:06;;;;;;;0.80;0.80;;;;;;;;;;4998378;28;58580;-68
2023/10/10 09:02:33;;;;;;;;;;;;;;;;;;4998533;28;59274;-68
2023/10/10 09:04:58;;;;;;;1.17;0.80;;;;;;;;;;4998197;28;58566;-68
2023/10/10 09:07:28;;;;;;;0.80;0.80;;;;;;;;;;4999992;28;59533;-68
2023/10/10 09:10:05;;;;;;;0.88;0.88;;;;;;;;;;4995752;28;63584;-69
2023/10/10 09:12:34;;;;;;;0.60;0.60;;;;;;;;;;4999648;28;58470;-69
2023/10/10 09:15:09;;;;;;;0.90;0.90;;;;;;;;;;4996944;28;59486;-68
2023/10/10 09:17:40;;;;;;;0.98;0.95;;;;;;;;;;4995661;28;61131;-68
2023/10/10 09:20:22;;;;;;;0.82;0.82;;;;;;;;;;4997532;28;58435;-68
2023/10/10 09:22:51;;;;;;;1.15;0.82;;;;;;;;;;4996294;28;60467;-69
2023/10/10 09:25:21;;;;;;;1.40;1.30;;;;;;;;;;4998278;28;58582;-69
2023/10/10 09:27:57;;;;;;;1.08;0.90;;;;;;;;;;4994961;28;58640;-68
2023/10/10 09:30:30;;;;;;;1.40;1.30;;;;;;;;;;4996477;28;58366;-69
2023/10/10 09:33:00;;;;;;;0.82;0.82;;;;;;;;;;4996144;28;58577;-68
2023/10/10 09:35:28;;;;;;;1.30;1.20;;;;;;;;;;4994996;28;59519;-68
2023/10/10 09:37:53;;;;;;;;;;;;;;;;;;4995399;28;58688;-68
2023/10/10 09:40:19;;;;;;;1.25;1.20;;;;;;;;;;4998155;28;58374;-69
2023/10/10 09:43:03;;;;;;;1.13;1.10;;;;;;;;;;4996128;28;59465;-69
2023/10/10 09:51:16;;;;;;;1.25;1.17;;;;;;;;;;4986794;28;58535;-69
2023/10/10 09:53:46;;;;;;;0.98;0.98;;;;;;;;;;4995534;28;58330;-65
2023/10/10 09:56:13;;;;;;;1.10;1.00;;;;;;;;;;4999015;28;58821;-64
2023/10/10 09:58:42;;;;;;;0.80;0.80;;;;;;;;;;4993448;28;60861;-66
2023/10/10 10:01:14;;;;;;;1.10;1.00;;;;;;;;;;4998351;28;58449;-64
2023/10/10 10:03:49;;;;;;;1.63;1.52;;;;;;;;;;4999216;28;59810;-65
2023/10/10 10:09:08;;;;;;;1.20;1.10;;;;;;;;;;4999116;28;58545;-64
2023/10/10 10:11:38;;;;;;;0.98;0.95;;;;;;;;;;4999702;28;59447;-64
2023/10/10 10:14:17;;;;;;;1.35;1.23;;;;;;;;;;5000365;28;58493;-65
2023/10/10 10:16:47;;;;;;;2.42;1.20;;;;;;;;;;4998354;28;60600;-64
2023/10/10 10:19:17;;;;;;;1.77;1.67;;;;;;;;;;4998754;28;59819;-65
2023/10/10 10:22:06;;;;;;;1.33;1.23;;;;;;;;;;4999430;28;59062;-65
2023/10/10 10:24:33;;;;;;;1.63;1.52;;;;;;;;;;4998007;28;60445;-65
2023/10/10 10:27:12;;;;;;;1.38;1.27;;;;;;;;;;4998720;28;58942;-64
2023/10/10 10:29:37;;;;;;;1.40;1.30;;;;;;;;;;5001060;28;58751;-64
2023/10/10 10:32:07;;;;;;;1.33;1.17;;;;;;;;;;5001226;28;59173;-65
2023/10/10 10:34:35;;;;;;;1.95;1.40;;;;;;;;;;4998882;28;58500;-65
2023/10/10 10:37:06;;;;;;;1.52;1.42;;;;;;;;;;4999489;28;59333;-66
2023/10/10 10:39:35;;;;;;;1.75;1.65;;;;;;;;;;4997732;28;59859;-65
2023/10/10 10:42:01;;;;;;;1.80;1.70;;;;;;;;;;5001589;28;58475;-64
2023/10/10 10:45:15;;;;;;;1.63;1.52;;;;;;;;;;5000319;28;59444;-65
2023/10/10 10:47:45;;;;;;;2.13;1.95;;;;;;;;;;4993993;28;58459;-65
2023/10/10 10:50:27;;;;;;;1.55;1.42;;;;;;;;;;5000786;28;58465;-65
2023/10/10 10:52:56;;;;;;;1.98;1.88;;;;;;;;;;4999007;28;59470;-64
2023/10/10 10:55:27;;;;;;;2.15;2.00;;;;;;;;;;5000330;28;58448;-65
2023/10/10 10:58:20;;;;;;;2.35;1.92;;;;;;;;;;5001096;28;64634;-64
2023/10/10 11:00:58;;;;;;;2.60;2.40;;;;;;;;;;4999378;28;58832;-64
2023/10/10 11:03:33;;;;;;;2.35;2.20;;;;;;;;;;4999376;28;58877;-65
2023/10/10 11:05:59;;;;;;;2.00;1.83;;;;;;;;;;4999077;28;60419;-69
2023/10/10 11:11:23;;;;;;;2.10;1.98;;;;;;;;;;5001520;28;58518;-69
2023/10/10 11:13:49;;;;;;;2.33;2.13;;;;;;;;;;4998801;28;58663;-68
2023/10/10 11:16:15;;;;;;;2.33;2.13;;;;;;;;;;4999037;28;58672;-69
2023/10/10 11:18:41;;;;;;;2.00;1.70;;;;;;;;;;4989946;28;58597;-68
2023/10/10 11:21:11;;;;;;;2.38;2.17;;;;;;;;;;4986593;28;59019;-68
2023/10/10 11:23:41;;;;;;;2.17;1.98;;;;;;;;;;4996079;28;58457;-68
2023/10/10 11:26:08;;;;;;;1.80;1.70;;;;;;;;;;4994339;28;59726;-68
2023/10/10 11:28:45;;;;;;;1.98;1.83;;;;;;;;;;4995289;28;58529;-68
2023/10/10 11:31:12;;;;;;;2.17;1.97;;;;;;;;;;4996928;28;58391;-69
2023/10/10 11:34:26;;;;;;;2.35;2.15;;;;;;;;;;4990969;28;59562;-68
2023/10/10 11:36:29;;;;;;;2.60;2.40;;;;;;;;;;4987979;28;58603;-69
2023/10/10 11:39:15;;;;;;;2.17;1.98;;;;;;;;;;4992668;28;58793;-69
2023/10/10 11:41:40;;;;;;;2.85;2.63;;;;;;;;;;4991349;28;58861;-69
2023/10/10 11:44:05;;;;;;;2.47;2.27;;;;;;;;;;4989494;28;58784;-69
2023/10/10 11:46:30;;;;;;;2.50;2.30;;;;;;;;;;4993529;28;59505;-69
2023/10/10 11:48:56;;;;;;;2.10;1.90;;;;;;;;;;4991382;28;59213;-69
2023/10/10 11:51:33;;;;;;;3.23;2.60;;;;;;;;;;4993089;28;58541;-69
2023/10/10 11:53:59;;;;;;;2.72;2.53;;;;;;;;;;4993135;28;61367;-69
2023/10/10 11:56:25;;;;;;;2.83;2.53;;;;;;;;;;4995250;28;58598;-69
2023/10/10 11:58:52;;;;;;;2.40;2.20;;;;;;;;;;4987586;28;58810;-68
2023/10/10 12:01:47;;;;;;;3.40;2.60;;;;;;;;;;4997080;28;59506;-69
2023/10/10 12:04:20;;;;;;;3.00;2.47;;;;;;;;;;4994290;28;58485;-69
2023/10/10 12:06:45;;;;;;;2.72;2.53;;;;;;;;;;4990307;28;59856;-68
2023/10/10 12:09:10;;;;;;;3.75;2.67;;;;;;;;;;4994955;28;58684;-69
2023/10/10 12:11:38;;;;;;;2.93;2.63;;;;;;;;;;4995398;28;58541;-69
2023/10/10 12:14:03;;;;;;;2.47;2.28;;;;;;;;;;4993631;28;60542;-64
2023/10/10 12:16:29;;;;;;;3.00;2.67;;;;;;;;;;4996243;28;59401;-66
2023/10/10 12:18:54;;;;;;;3.47;3.17;;;;;;;;;;4990279;28;58425;-66
2023/10/10 12:21:22;;;;;;;3.50;3.20;;;;;;;;;;4997237;28;59220;-64
2023/10/10 12:23:47;;;;;;;;;;;;;;;;;;4993773;28;59165;-66
2023/10/10 12:26:12;;;;;;;3.10;2.80;;;;;;;;;;4990362;28;60468;-66
2023/10/10 12:28:38;;;;;;;3.40;3.10;;;;;;;;;;4992544;28;59277;-66
2023/10/10 12:31:04;;;;;;;2.75;2.55;;;;;;;;;;4997073;28;58661;-65
2023/10/10 12:33:30;;;;;;;2.97;2.75;;;;;;;;;;4992700;28;59653;-64
2023/10/10 12:35:56;;;;;;;3.25;2.95;;;;;;;;;;4989949;28;60270;-64
2023/10/10 12:38:22;;;;;;;3.75;3.22;;;;;;;;;;4991088;28;58447;-65
2023/10/10 12:40:51;;;;;;;3.13;2.72;;;;;;;;;;4993753;28;59198;-65
2023/10/10 12:43:16;;;;;;;2.80;2.60;;;;;;;;;;4991857;28;58590;-65
2023/10/10 12:45:41;;;;;;;4.20;3.25;;;;;;;;;;4992920;28;58427;-66
2023/10/10 12:48:20;;;;;;;3.20;2.87;;;;;;;;;;4994888;28;59563;-66
2023/10/10 12:50:46;;;;;;;3.15;2.85;;;;;;;;;;4993168;28;58428;-65
2023/10/10 12:53:15;;;;;;;2.92;2.70;;;;;;;;;;4993254;28;60381;-67
2023/10/10 12:55:48;;;;;;;3.17;2.88;;;;;;;;;;4987153;28;58551;-65
2023/10/10 12:58:16;;;;;;;3.17;2.88;;;;;;;;;;4994336;28;58432;-67
2023/10/10 13:00:49;;;;;;;3.47;3.17;;;;;;;;;;4990212;28;60300;-70
2023/10/10 13:03:15;;;;;;;3.83;2.45;;;;;;;;;;4992067;28;60177;-69
2023/10/10 13:05:40;;;;;;;3.57;2.77;;;;;;;;;;4992281;28;58495;-65
2023/10/10 13:08:06;;;;;;;4.50;2.60;;;;;;;;;;4990718;28;58922;-67
2023/10/10 13:10:37;;;;;;;4.43;3.03;;;;;;;;;;4991009;28;58452;-67
2023/10/10 13:13:02;;;;;;;4.65;3.30;;;;;;;;;;4992549;28;60547;-68
2023/10/10 13:15:29;;;;;;;5.68;2.95;;;;;;;;;;4994732;28;58456;-69
2023/10/10 13:18:19;;;;;;;3.42;2.97;;;;;;;;;;4985594;28;58478;-68
2023/10/10 13:20:41;;;;;;;2.85;2.65;;;;;;;;;;4993884;28;59113;-64
2023/10/10 13:23:06;;;;;;;3.67;2.50;;;;;;;;;;4991427;28;59170;-64
2023/10/10 13:25:37;;;;;;;3.23;2.93;;;;;;;;;;4997535;28;58408;-66
2023/10/10 13:28:09;;;;;;;3.78;3.30;;;;;;;;;;4996638;28;59006;-65
2023/10/10 13:30:34;;;;;;;6.25;3.25;;;;;;;;;;4995523;28;58417;-67
2023/10/10 13:33:01;;;;;;;2.72;2.45;;;;;;;;;;4993811;28;59732;-68
2023/10/10 13:35:26;;;;;;;3.20;2.88;;;;;;;;;;4995140;28;60016;-69
2023/10/10 13:37:51;;;;;;;5.33;2.57;;;;;;;;;;4991652;28;58407;-66
2023/10/10 13:40:22;;;;;;;3.30;3.00;;;;;;;;;;4995613;28;59546;-71
2023/10/10 13:42:47;;;;;;;3.22;2.92;;;;;;;;;;4993960;28;59190;-75
2023/10/10 13:45:18;;;;;;;3.80;3.50;;;;;;;;;;4994504;28;58585;-74
2023/10/10 13:47:47;;;;;;;4.55;3.03;;;;;;;;;;4999750;28;60723;-69
2023/10/10 13:50:28;;;;;;;5.63;3.90;;;;;;;;;;5001800;28;59008;-65
2023/10/10 13:52:53;;;;;;;4.75;3.60;;;;;;;;;;4999266;28;59462;-65
2023/10/10 13:55:18;;;;;;;4.53;2.97;;;;;;;;;;5000836;28;59431;-66
2023/10/10 13:57:44;;;;;;;4.82;4.07;;;;;;;;;;5000154;28;58602;-67
2023/10/10 14:00:28;;;;;;;3.43;2.97;;;;;;;;;;5001113;28;60339;-66
2023/10/10 14:02:59;;;;;;;6.68;3.40;;;;;;;;;;4996567;28;59392;-65
2023/10/10 14:05:25;;;;;;;4.97;3.15;;;;;;;;;;4999635;28;58432;-66
2023/10/10 14:07:50;;;;;;;4.67;4.17;;;;;;;;;;5002142;28;59367;-65
2023/10/10 14:10:20;;;;;;;4.97;3.58;;;;;;;;;;4995933;28;58399;-65
2023/10/10 14:12:45;;;;;;;4.47;3.50;;;;;;;;;;4992851;28;58517;-68
2023/10/10 14:15:11;;;;;;;4.80;3.67;;;;;;;;;;4993732;28;58834;-67
2023/10/10 14:17:36;;;;;;;3.47;3.17;;;;;;;;;;4992410;28;58451;-68
2023/10/10 14:20:02;;;;;;;4.60;3.70;;;;;;;;;;4995530;28;59486;-68
2023/10/10 14:22:27;;;;;;;4.83;4.33;;;;;;;;;;4993473;28;59060;-70
2023/10/10 14:24:52;;;;;;;4.57;3.73;;;;;;;;;;4992072;28;58533;-70
2023/10/10 14:27:20;;;;;;;4.17;3.77;;;;;;;;;;4994217;28;58569;-68
2023/10/10 14:29:45;;;;;;;4.65;4.13;;;;;;;;;;4991626;28;60192;-71
2023/10/10 14:32:14;;;;;;;4.17;3.77;;;;;;;;;;4991670;28;58470;-69
2023/10/10 14:34:39;;;;;;;5.00;3.67;;;;;;;;;;4995721;28;59534;-66
2023/10/10 14:37:05;;;;;;;4.10;3.60;;;;;;;;;;4996620;28;58465;-65
2023/10/10 14:39:31;;;;;;;7.32;4.63;;;;;;;;;;4994182;28;59309;-66
2023/10/10 14:42:00;;;;;;;3.83;3.45;;;;;;;;;;4994842;28;58771;-66
2023/10/10 14:44:28;;;;;;;4.60;3.88;;;;;;;;;;4994457;28;58375;-69
2023/10/10 14:46:57;;;;;;;4.32;3.72;;;;;;;;;;4994138;28;58691;-66
2023/10/10 14:49:29;;;;;;;4.43;4.00;;;;;;;;;;4994707;28;59471;-67
2023/10/10 14:51:54;;;;;;;4.13;2.90;;;;;;;;;;5001618;28;58388;-65
2023/10/10 14:54:19;;;;;;;5.25;4.75;;;;;;;;;;5003501;28;60520;-65
2023/10/10 14:56:51;;;;;;;4.07;3.67;;;;;;;;;;5003146;28;58569;-66
2023/10/10 14:59:24;;;;;;;5.15;3.67;;;;;;;;;;5003514;28;59891;-65
2023/10/10 15:01:49;;;;;;;4.70;4.28;;;;;;;;;;5001886;28;58857;-66
2023/10/10 15:04:19;;;;;;;3.22;2.80;;;;;;;;;;5002754;28;58334;-66
2023/10/10 15:06:44;;;;;;;4.00;3.65;;;;;;;;;;5001019;28;60094;-66
2023/10/10 15:09:13;;;;;;;3.90;3.53;;;;;;;;;;5003035;28;59114;-67
2023/10/10 15:11:41;;;;;;;3.78;3.45;;;;;;;;;;5003368;28;58383;-66
2023/10/10 15:14:07;;;;;;;3.88;3.47;;;;;;;;;;5002654;28;60075;-66
2023/10/10 15:16:35;;;;;;;3.60;3.30;;;;;;;;;;5003617;28;58882;-66
2023/10/10 15:19:02;;;;;;;4.97;3.97;;;;;;;;;;5003877;28;59616;-66
2023/10/10 15:21:32;;;;;;;4.03;3.65;;;;;;;;;;5000880;28;59439;-66
2023/10/10 15:23:58;;;;;;;4.20;3.67;;;;;;;;;;5002270;28;58604;-67
2023/10/10 15:26:23;;;;;;;3.30;3.00;;;;;;;;;;5001638;28;59762;-67
2023/10/10 15:28:52;;;;;;;4.17;3.53;;;;;;;;;;5002060;28;58565;-66
2023/10/10 15:31:19;;;;;;;3.67;3.35;;;;;;;;;;5002483;28;58485;-64
2023/10/10 15:33:44;;;;;;;3.47;3.17;;;;;;;;;;5003685;28;60381;-69
2023/10/10 15:36:11;;;;;;;4.17;3.57;;;;;;;;;;5001730;28;59178;-66
2023/10/10 15:38:37;;;;;;;5.13;4.57;;;;;;;;;;5003295;28;58447;-66
2023/10/10 15:41:13;;;;;;;4.47;3.88;;;;;;;;;;5004696;28;58897;-69
2023/10/10 15:43:39;;;;;;;5.50;4.15;;;;;;;;;;5001208;28;58447;-67
2023/10/10 15:46:06;;;;;;;4.27;3.30;;;;;;;;;;5001234;28;59502;-65
2023/10/10 15:48:42;;;;;;;3.20;2.80;;;;;;;;;;4996395;28;60222;-75
2023/10/10 15:51:08;;;;;;;4.32;3.92;;;;;;;;;;4999004;28;58463;-70
2023/10/10 15:53:34;;;;;;;3.85;3.38;;;;;;;;;;5000898;28;58851;-69
2023/10/10 15:56:10;;;;;;;3.92;3.33;;;;;;;;;;5000897;28;60148;-74
2023/10/10 15:58:36;;;;;;;3.55;2.85;;;;;;;;;;4995293;28;58471;-73
2023/10/10 16:01:04;;;;;;;4.18;3.35;;;;;;;;;;5000013;28;59369;-73
2023/10/10 16:03:31;;;;;;;3.20;2.88;;;;;;;;;;5002616;28;58505;-73
2023/10/10 16:05:58;;;;;;;2.90;2.57;;;;;;;;;;5002578;28;58716;-73
2023/10/10 16:08:23;;;;;;;3.20;2.90;;;;;;;;;;5002061;28;59203;-73
2023/10/10 16:10:48;;;;;;;4.72;3.25;;;;;;;;;;5001771;28;58493;-73
2023/10/10 16:13:13;;;;;;;3.78;3.47;;;;;;;;;;5003148;28;58446;-73
2023/10/10 16:15:38;;;;;;;3.95;3.65;;;;;;;;;;5002699;28;59780;-73
2023/10/10 16:18:04;;;;;;;4.60;3.87;;;;;;;;;;5002713;28;58380;-72
2023/10/10 16:20:29;;;;;;;4.25;3.75;;;;;;;;;;5003221;28;60643;-73
2023/10/10 16:22:55;;;;;;;4.27;3.30;;;;;;;;;;5002522;28;59270;-74
2023/10/10 16:25:23;;;;;;;3.55;3.25;;;;;;;;;;4993457;28;59740;-74
2023/10/10 16:27:48;;;;;;;3.70;3.40;;;;;;;;;;4996507;28;59925;-74
2023/10/10 16:30:16;;;;;;;5.03;3.90;;;;;;;;;;4998292;28;58901;-73
2023/10/10 16:32:43;;;;;;;;;;;;;;;;;;5000402;28;59584;-72
2023/10/10 16:35:11;;;;;;;4.18;3.60;;;;;;;;;;5001531;28;58559;-72
2023/10/10 16:37:36;;;;;;;3.47;3.17;;;;;;;;;;5001043;28;58534;-70
2023/10/10 16:40:11;;;;;;;3.67;3.38;;;;;;;;;;5001879;28;58501;-69
2023/10/10 16:42:37;;;;;;;3.20;2.90;;;;;;;;;;5001005;28;58613;-70
2023/10/10 16:45:02;;;;;;;3.88;3.55;;;;;;;;;;5002262;28;58417;-72
2023/10/10 16:47:27;;;;;;;4.17;3.10;;;;;;;;;;4996282;28;58713;-71
2023/10/10 16:49:53;;;;;;;3.67;3.30;;;;;;;;;;5002849;28;58350;-73
2023/10/10 16:52:19;;;;;;;4.17;3.63;;;;;;;;;;5000033;28;59505;-72
2023/10/10 16:54:50;;;;;;;4.03;3.50;;;;;;;;;;5000535;28;59607;-70
2023/10/10 16:57:16;;;;;;;4.55;3.10;;;;;;;;;;4999213;28;58413;-72
2023/10/10 16:59:42;;;;;;;6.00;3.20;;;;;;;;;;4998625;28;60316;-76
2023/10/10 17:02:08;;;;;;;3.97;3.35;;;;;;;;;;4998672;28;60318;-70
2023/10/10 17:04:33;;;;;;;4.07;3.67;;;;;;;;;;5002218;28;58352;-71
2023/10/10 17:06:59;;;;;;;3.43;3.13;;;;;;;;;;5000547;28;60521;-70
2023/10/10 17:09:26;;;;;;;4.38;3.97;;;;;;;;;;4997689;28;58499;-70
2023/10/10 17:11:51;;;;;;;5.97;3.13;;;;;;;;;;5000978;28;59412;-72
2023/10/10 17:14:18;;;;;;;3.50;3.17;;;;;;;;;;5000432;28;59849;-70
2023/10/10 17:16:43;;;;;;;3.10;2.90;;;;;;;;;;4999851;28;58470;-72
2023/10/10 17:19:10;;;;;;;3.77;3.03;;;;;;;;;;4999736;28;59936;-72
2023/10/10 17:21:35;;;;;;;3.65;3.35;;;;;;;;;;4998562;28;58588;-71
2023/10/10 17:24:03;;;;;;;2.75;2.55;;;;;;;;;;4997303;28;58620;-71